Time,TemperatureF,DewpointF,PressureIn,WindDirection,WindDirectionDegrees,WindSpeedMPH,WindSpeedGustMPH,Humidity,HourlyPrecipIn,Conditions,Clouds,dailyrainin,SoftwareType,DateUTC
2013-04-26 00:01:00,65.0,41.0,-100.00,WNW,295,3.0,11.0,42,0.00,,,0.00,,2013-04-26 00:01:00,
2013-04-26 00:11:00,65.0,41.0,-100.00,WNW,295,3.0,11.0,42,0.00,,,0.00,,2013-04-26 00:11:00,
2013-04-26 00:21:00,65.0,41.0,-100.00,WNW,295,3.0,11.0,42,0.00,,,0.00,,2013-04-26 00:21:00,
2013-04-26 00:52:00,64.0,42.0,-100.00,ESE,115,4.0,10.0,44,0.00,,,0.00,,2013-04-26 00:52:00,
2013-04-26 01:01:00,64.0,42.0,-100.00,ESE,115,4.0,10.0,44,0.00,,,0.00,,2013-04-26 01:01:00,
2013-04-26 01:11:00,64.0,42.0,-100.00,ESE,115,4.0,10.0,44,0.00,,,0.00,,2013-04-26 01:11:00,
2013-04-26 01:21:00,64.0,42.0,-100.00,ESE,115,4.0,10.0,44,0.00,,,0.00,,2013-04-26 01:21:00,
2013-04-26 01:52:00,59.0,41.0,-100.00,NW,315,2.0,9.0,51,0.00,,,0.00,,2013-04-26 01:52:00,
2013-04-26 02:01:00,59.0,41.0,-100.00,NW,315,2.0,9.0,51,0.00,,,0.00,,2013-04-26 02:01:00,
2013-04-26 02:11:00,59.0,41.0,-100.00,NW,315,2.0,9.0,51,0.00,,,0.00,,2013-04-26 02:11:00,
2013-04-26 02:21:00,59.0,41.0,-100.00,NW,315,2.0,9.0,51,0.00,,,0.00,,2013-04-26 02:21:00,
2013-04-26 02:52:00,53.0,42.0,-100.00,NNW,344,1.0,8.0,66,0.00,,,0.00,,2013-04-26 02:52:00,
2013-04-26 03:01:00,53.0,42.0,-100.00,NNW,344,1.0,8.0,66,0.00,,,0.00,,2013-04-26 03:01:00,
2013-04-26 03:11:00,53.0,42.0,-100.00,NNW,344,1.0,8.0,66,0.00,,,0.00,,2013-04-26 03:11:00,
2013-04-26 03:21:00,53.0,42.0,-100.00,NNW,344,1.0,8.0,66,0.00,,,0.00,,2013-04-26 03:21:00,
2013-04-26 03:53:00,48.0,41.0,-100.00,NNW,348,0.0,7.0,76,0.00,,,0.00,,2013-04-26 03:53:00,
2013-04-26 04:02:00,48.0,41.0,-100.00,NNW,348,0.0,7.0,76,0.00,,,0.00,,2013-04-26 04:02:00,
2013-04-26 04:12:00,48.0,41.0,-100.00,NNW,348,0.0,7.0,76,0.00,,,0.00,,2013-04-26 04:12:00,
2013-04-26 04:22:00,48.0,41.0,-100.00,NNW,348,0.0,7.0,76,0.00,,,0.00,,2013-04-26 04:22:00,
2013-04-26 04:53:00,45.0,41.0,-100.00,North,2,0.0,4.0,85,0.00,,,0.00,,2013-04-26 04:53:00,
2013-04-26 05:02:00,45.0,41.0,-100.00,North,2,0.0,4.0,85,0.00,,,0.00,,2013-04-26 05:02:00,
2013-04-26 05:12:00,45.0,41.0,-100.00,North,2,0.0,4.0,85,0.00,,,0.00,,2013-04-26 05:12:00,
2013-04-26 05:22:00,45.0,41.0,-100.00,North,2,0.0,4.0,85,0.00,,,0.00,,2013-04-26 05:22:00,
2013-04-26 05:52:00,41.0,38.0,-100.00,NW,325,0.0,0.0,88,0.00,,,0.00,,2013-04-26 05:52:00,
2013-04-26 06:02:00,41.0,38.0,-100.00,NW,325,0.0,0.0,88,0.00,,,0.00,,2013-04-26 06:02:00,
2013-04-26 06:52:00,40.0,37.0,-100.00,North,353,0.0,0.0,90,0.00,,,0.00,,2013-04-26 06:52:00,
2013-04-26 07:01:00,40.0,37.0,-100.00,North,353,0.0,0.0,90,0.00,,,0.00,,2013-04-26 07:01:00,
2013-04-26 07:11:00,40.0,37.0,-100.00,North,353,0.0,0.0,90,0.00,,,0.00,,2013-04-26 07:11:00,
2013-04-26 07:22:00,40.0,37.0,-100.00,North,353,0.0,0.0,90,0.00,,,0.00,,2013-04-26 07:22:00,
2013-04-26 07:52:00,35.0,34.0,-100.00,SSE,156,0.0,0.0,97,0.00,,,0.00,,2013-04-26 07:52:00,
2013-04-26 08:52:00,34.0,33.0,-100.00,SSE,163,0.0,0.0,97,-99.99,,,-99.99,,2013-04-26 08:52:00,
2013-04-26 11:52:00,30.0,30.0,-100.00,SE,136,0.0,0.0,100,-99.99,,,0.00,,2013-04-26 11:52:00,
2013-04-26 12:52:00,30.0,30.0,-100.00,SE,136,0.0,0.0,100,-99.99,,,0.00,,2013-04-26 12:52:00,
2013-04-26 13:52:00,30.0,30.0,-100.00,SE,144,0.0,0.0,100,-99.99,,,0.00,,2013-04-26 13:52:00,
2013-04-26 14:52:00,40.0,35.0,-100.00,SE,124,0.0,0.0,81,-99.99,,,0.00,,2013-04-26 14:52:00,
2013-04-26 15:01:00,40.0,35.0,-100.00,SE,124,0.0,0.0,81,-99.99,,,0.00,,2013-04-26 15:01:00,
2013-04-26 15:11:00,40.0,35.0,-100.00,SE,124,0.0,0.0,81,-99.99,,,0.00,,2013-04-26 15:11:00,
2013-04-26 15:21:00,40.0,35.0,-100.00,SE,124,0.0,0.0,81,-99.99,,,0.00,,2013-04-26 15:21:00,
2013-04-26 15:53:00,60.0,37.0,-100.00,South,169,0.0,0.0,42,-99.99,,,0.00,,2013-04-26 15:53:00,
2013-04-26 16:03:00,60.0,37.0,-100.00,South,169,0.0,0.0,42,-99.99,,,0.00,,2013-04-26 16:03:00,
2013-04-26 16:12:00,60.0,37.0,-100.00,South,169,0.0,0.0,42,-99.99,,,0.00,,2013-04-26 16:12:00,
2013-04-26 16:23:00,60.0,37.0,-100.00,South,169,0.0,0.0,42,-99.99,,,0.00,,2013-04-26 16:23:00,
2013-04-26 16:52:00,73.0,28.0,-100.00,NW,323,0.0,0.0,19,0.00,,,0.00,,2013-04-26 16:52:00,
2013-04-26 17:02:00,73.0,28.0,-100.00,NW,323,0.0,0.0,19,0.00,,,0.00,,2013-04-26 17:02:00,
2013-04-26 17:12:00,73.0,28.0,-100.00,NW,323,0.0,0.0,19,0.00,,,0.00,,2013-04-26 17:12:00,
2013-04-26 17:21:00,73.0,28.0,-100.00,NW,323,0.0,0.0,19,0.00,,,0.00,,2013-04-26 17:21:00,
2013-04-26 17:52:00,77.0,16.0,-100.00,SSW,202,3.0,8.0,10,0.00,,,0.00,,2013-04-26 17:52:00,
2013-04-26 19:52:00,80.0,21.0,-100.00,WNW,298,1.0,10.0,11,0.00,,,0.00,,2013-04-26 19:52:00,
2013-04-26 20:21:00,80.0,21.0,-100.00,WNW,298,1.0,10.0,11,0.00,,,0.00,,2013-04-26 20:21:00,
2013-04-26 20:52:00,81.0,26.0,-100.00,WSW,251,3.0,12.0,13,0.00,,,0.00,,2013-04-26 20:52:00,
2013-04-26 21:01:00,81.0,26.0,-100.00,WSW,251,3.0,12.0,13,0.00,,,0.00,,2013-04-26 21:01:00,
2013-04-26 21:11:00,81.0,26.0,-100.00,WSW,251,3.0,12.0,13,0.00,,,0.00,,2013-04-26 21:11:00,
2013-04-26 21:21:00,81.0,26.0,-100.00,WSW,251,3.0,12.0,13,0.00,,,0.00,,2013-04-26 21:21:00,
2013-04-26 21:53:00,72.0,30.0,-100.00,North,354,1.0,15.0,21,0.00,,,0.00,,2013-04-26 21:53:00,
2013-04-26 22:02:00,72.0,30.0,-100.00,North,354,1.0,15.0,21,0.00,,,0.00,,2013-04-26 22:02:00,
2013-04-26 22:12:00,72.0,30.0,-100.00,North,354,1.0,15.0,21,0.00,,,0.00,,2013-04-26 22:12:00,
2013-04-26 22:22:00,72.0,30.0,-100.00,North,354,1.0,15.0,21,0.00,,,0.00,,2013-04-26 22:22:00,
2013-04-26 22:52:00,74.0,30.0,-100.00,WNW,301,4.0,8.0,20,0.00,,,0.00,,2013-04-26 22:52:00,
2013-04-26 23:01:00,74.0,30.0,-100.00,WNW,301,4.0,8.0,20,0.00,,,0.00,,2013-04-26 23:01:00,
2013-04-26 23:11:00,74.0,30.0,-100.00,WNW,301,4.0,8.0,20,0.00,,,0.00,,2013-04-26 23:11:00,
2013-04-26 23:21:00,74.0,30.0,-100.00,WNW,301,4.0,8.0,20,0.00,,,0.00,,2013-04-26 23:21:00,
2013-04-26 23:52:00,77.0,29.0,-100.00,NE,46,4.0,12.0,17,0.00,,,0.00,,2013-04-26 23:52:00,